Time;durP1;ratioP1;P1;durP2;ratioP2;P2;SDS_P1;SDS_P2;PMS_P1;PMS_P2;Temp;Humidity;BMP_temperature;BMP_pressure;BME280_temperature;BME280_humidity;BME280_pressure;Samples;Min_cycle;Max_cycle;Signal;HPM_P1;HPM_P2
2024/03/19 00:02:21;;;;;;;10.83;6.77;;;;;;;10.10;83.60;99058.91;5109612;28;42729;-73
2024/03/19 00:04:49;;;;;;;9.80;7.57;;;;;;;10.17;83.64;99070.84;5110840;28;42815;-75
2024/03/19 00:07:16;;;;;;;8.43;6.77;;;;;;;10.16;83.27;99069.13;5112830;28;43169;-74
2024/03/19 00:09:44;;;;;;;9.87;7.87;;;;;;;10.07;84.29;99053.78;5111330;28;40110;-74
2024/03/19 00:12:12;;;;;;;11.33;9.30;;;;;;;10.12;84.51;99059.69;5112619;28;41551;-73
2024/03/19 00:14:40;;;;;;;11.73;8.47;;;;;;;10.11;85.17;99054.47;5110953;28;43734;-74
2024/03/19 00:17:07;;;;;;;14.03;9.90;;;;;;;10.07;86.34;99054.63;5108792;28;43144;-76
2024/03/19 00:19:35;;;;;;;13.17;9.23;;;;;;;10.01;86.33;99048.84;5111459;28;40032;-73
2024/03/19 00:22:03;;;;;;;13.13;9.60;;;;;;;9.88;86.43;99048.69;5111529;28;41769;-73
2024/03/19 00:24:30;;;;;;;11.10;9.10;;;;;;;9.86;86.46;99055.88;5110014;28;42481;-74
2024/03/19 00:26:57;;;;;;;10.27;8.43;;;;;;;9.78;85.81;99073.94;5109980;28;42237;-73
2024/03/19 00:29:26;;;;;;;10.27;8.33;;;;;;;9.69;85.88;99074.47;5108415;28;40738;-75
2024/03/19 00:31:54;;;;;;;9.13;7.47;;;;;;;9.58;85.61;99077.69;5110252;28;40675;-74
2024/03/19 00:34:22;;;;;;;9.50;7.40;;;;;;;9.48;85.72;99078.28;5128254;27;42780;-74
2024/03/19 00:36:49;;;;;;;13.80;8.37;;;;;;;9.39;85.58;99076.16;5112296;28;42211;-74
2024/03/19 00:39:16;;;;;;;10.03;8.20;;;;;;;9.24;85.47;99072.53;5110949;28;41367;-73
2024/03/19 00:41:44;;;;;;;9.10;7.40;;;;;;;9.24;85.59;99083.09;5092268;28;40407;-73
2024/03/19 00:44:12;;;;;;;11.57;7.90;;;;;;;9.18;85.64;99073.72;5111714;28;43642;-75
2024/03/19 00:46:41;;;;;;;9.67;7.67;;;;;;;9.15;85.72;99078.31;5093731;28;42127;-75
2024/03/19 00:49:08;;;;;;;11.10;8.03;;;;;;;9.13;85.59;99074.91;5112149;28;40095;-73
2024/03/19 00:51:37;;;;;;;10.00;7.10;;;;;;;9.12;85.63;99075.84;5110344;28;40668;-74
2024/03/19 00:54:04;;;;;;;10.60;7.63;;;;;;;9.10;85.90;99075.91;5109101;28;43054;-73
2024/03/19 00:56:31;;;;;;;9.07;7.50;;;;;;;9.12;86.21;99068.75;5109783;28;41362;-74
2024/03/19 00:58:59;;;;;;;11.23;8.03;;;;;;;9.16;85.86;99072.94;5111735;28;39996;-74
2024/03/19 01:01:26;;;;;;;11.70;8.47;;;;;;;9.18;85.93;99072.84;5109569;28;42446;-74
2024/03/19 01:03:55;;;;;;;9.57;7.60;;;;;;;9.17;85.58;99072.00;5111764;27;42548;-73
2024/03/19 01:06:23;;;;;;;8.23;7.03;;;;;;;9.17;85.71;99066.72;5097065;28;41654;-74
2024/03/19 01:08:50;;;;;;;9.27;6.60;;;;;;;9.19;85.36;99069.28;5114453;28;38831;-73
2024/03/19 01:11:17;;;;;;;8.87;6.80;;;;;;;9.16;85.71;99065.00;5115158;28;41709;-74
2024/03/19 01:13:45;;;;;;;10.90;8.23;;;;;;;9.12;86.78;99067.91;5112684;28;43523;-73
2024/03/19 01:16:12;;;;;;;11.20;8.67;;;;;;;9.08;86.39;99061.06;5114729;28;42045;-74
2024/03/19 01:18:40;;;;;;;9.17;6.80;;;;;;;9.02;86.15;99060.44;5114358;28;38940;-75
2024/03/19 01:21:09;;;;;;;10.87;8.63;;;;;;;8.97;86.85;99057.22;5113851;28;42431;-74
2024/03/19 01:23:36;;;;;;;11.67;8.93;;;;;;;8.93;87.01;99062.72;5115210;28;43732;-75
2024/03/19 01:26:04;;;;;;;9.90;7.83;;;;;;;8.88;86.94;99057.72;5111554;28;42138;-74
2024/03/19 01:28:31;;;;;;;10.00;7.57;;;;;;;8.88;86.78;99059.50;5094985;28;40266;-73
2024/03/19 01:30:59;;;;;;;9.90;7.40;;;;;;;8.91;86.25;99059.31;5113281;28;42729;-74
2024/03/19 01:33:26;;;;;;;9.60;7.00;;;;;;;8.94;86.06;99054.72;5115322;28;42748;-75
2024/03/19 01:35:54;;;;;;;9.17;6.80;;;;;;;8.97;85.80;99059.84;5113769;28;42928;-74
2024/03/19 01:38:25;;;;;;;7.57;6.27;;;;;;;9.02;85.35;99050.84;5114147;28;40928;-73
2024/03/19 01:40:53;;;;;;;7.83;6.07;;;;;;;8.82;85.17;99017.53;5113777;28;41695;-73
2024/03/19 01:43:20;;;;;;;6.97;5.90;;;;;;;9.10;85.06;99053.91;5111914;28;41300;-74
2024/03/19 01:46:19;;;;;;;9.50;6.67;;;;;;;9.07;84.99;99048.78;5095903;28;42684;-75
2024/03/19 01:48:47;;;;;;;6.87;5.73;;;;;;;9.02;84.69;99050.84;5112589;28;40309;-75
2024/03/19 01:51:17;;;;;;;10.70;8.20;;;;;;;8.97;84.82;99053.72;5113424;28;40531;-74
2024/03/19 01:53:47;;;;;;;14.77;9.17;;;;;;;8.91;87.68;99028.47;5114667;28;42742;-74
2024/03/19 01:56:15;;;;;;;12.33;9.37;;;;;;;8.90;87.64;99034.69;5112971;28;42006;-73
2024/03/19 01:58:46;;;;;;;10.37;8.13;;;;;;;8.91;87.10;99044.31;5094971;28;38984;-73
2024/03/19 02:01:14;;;;;;;9.93;7.93;;;;;;;8.93;86.34;99047.72;5113100;28;40540;-73
2024/03/19 02:03:43;;;;;;;9.37;7.33;;;;;;;8.93;86.39;99047.72;5114856;28;42797;-74
2024/03/19 02:06:12;;;;;;;8.47;6.47;;;;;;;8.94;85.94;99051.22;5114083;28;43281;-75
2024/03/19 02:08:39;;;;;;;8.03;6.83;;;;;;;8.93;85.55;99037.16;5114875;28;40741;-73
2024/03/19 02:11:09;;;;;;;8.43;6.57;;;;;;;8.80;85.36;99024.69;5112156;28;41749;-75
2024/03/19 02:13:36;;;;;;;8.57;6.00;;;;;;;8.93;85.23;99044.25;5093371;28;43107;-75
2024/03/19 02:16:04;;;;;;;9.90;6.80;;;;;;;8.91;85.52;99044.31;5111984;28;43422;-74
2024/03/19 02:18:31;;;;;;;10.53;6.60;;;;;;;8.90;86.07;99037.31;5113445;28;39030;-74
2024/03/19 02:20:59;;;;;;;10.13;7.83;;;;;;;8.87;85.89;99037.50;5112963;28;40706;-73
2024/03/19 02:23:28;;;;;;;9.20;6.70;;;;;;;8.88;85.70;99033.94;5113184;28;43599;-73
2024/03/19 02:25:55;;;;;;;8.23;6.60;;;;;;;8.88;85.60;99036.56;5113877;28;42248;-73
2024/03/19 02:28:23;;;;;;;8.43;6.90;;;;;;;8.87;85.61;99026.94;5113255;28;40809;-74
2024/03/19 02:30:50;;;;;;;12.63;8.73;;;;;;;8.85;87.65;99009.47;5111100;28;42589;-73
2024/03/19 02:33:18;;;;;;;11.93;8.17;;;;;;;8.85;87.19;99022.66;5113398;28;43868;-73
2024/03/19 02:35:45;;;;;;;9.33;7.27;;;;;;;8.85;86.53;99026.16;5112637;28;41014;-74
2024/03/19 02:38:13;;;;;;;9.97;7.80;;;;;;;8.84;86.68;99027.09;5114401;28;40087;-74
2024/03/19 02:40:44;;;;;;;10.13;7.90;;;;;;;8.81;87.73;99016.69;5112657;28;42140;-73
2024/03/19 02:43:11;;;;;;;11.77;9.20;;;;;;;8.81;88.59;99011.41;5107434;28;42949;-74
2024/03/19 02:45:39;;;;;;;11.90;8.03;;;;;;;8.78;88.47;99026.59;5113117;28;41999;-75
2024/03/19 02:48:07;;;;;;;11.37;8.50;;;;;;;8.75;88.04;99027.59;5095744;28;38842;-74
2024/03/19 02:50:34;;;;;;;10.10;7.37;;;;;;;8.77;87.84;99025.72;5112755;28;42414;-74
2024/03/19 02:53:02;;;;;;;10.47;8.27;;;;;;;8.76;88.83;99013.47;5095425;28;43101;-74
2024/03/19 02:55:29;;;;;;;10.43;8.83;;;;;;;8.76;89.00;99018.75;5094973;28;41080;-74
2024/03/19 02:57:58;;;;;;;10.67;7.73;;;;;;;8.82;88.39;99023.69;5112524;28;41344;-74
2024/03/19 03:00:26;;;;;;;10.73;7.63;;;;;;;8.87;87.84;99026.94;5110307;28;41789;-74
2024/03/19 03:02:54;;;;;;;9.10;7.97;;;;;;;8.89;87.78;99025.09;5109881;28;43775;-74
2024/03/19 03:05:21;;;;;;;9.80;7.73;;;;;;;8.92;87.83;99022.25;5113198;28;42308;-73
2024/03/19 03:07:49;;;;;;;12.47;9.60;;;;;;;8.95;87.66;99016.81;5112719;28;40977;-74
2024/03/19 03:10:17;;;;;;;8.40;6.90;;;;;;;9.00;87.50;99022.72;5095030;28;41723;-74
2024/03/19 03:12:44;;;;;;;9.53;6.80;;;;;;;9.06;86.89;99031.22;5110823;28;41995;-75
2024/03/19 03:15:13;;;;;;;8.50;6.93;;;;;;;9.10;86.89;99030.16;5093879;28;41325;-75
2024/03/19 03:17:41;;;;;;;11.20;8.47;;;;;;;9.13;87.26;99027.34;5113526;28;40095;-75
2024/03/19 03:20:11;;;;;;;8.87;7.67;;;;;;;9.15;87.35;99033.41;5093438;28;42618;-74
2024/03/19 03:22:38;;;;;;;11.10;9.33;;;;;;;9.18;87.75;99033.22;5093092;28;42765;-73
2024/03/19 03:25:11;;;;;;;12.60;9.57;;;;;;;9.20;87.25;99034.84;5111845;28;42162;-75
2024/03/19 03:27:39;;;;;;;11.30;9.50;;;;;;;9.26;88.44;99036.31;5095405;28;39131;-73
2024/03/19 03:30:10;;;;;;;13.77;10.37;;;;;;;9.28;88.13;99037.06;5094118;28;40779;-74
2024/03/19 03:32:40;;;;;;;11.60;9.57;;;;;;;9.31;87.86;99039.53;5112077;28;43695;-74
2024/03/19 03:35:08;;;;;;;12.70;9.30;;;;;;;9.29;87.95;99023.78;5111703;28;42271;-73
2024/03/19 03:37:36;;;;;;;12.30;9.07;;;;;;;9.34;87.61;99034.97;5111626;28;40059;-74
2024/03/19 03:40:12;;;;;;;10.47;8.17;;;;;;;9.45;87.18;99039.66;5110965;28;42416;-74
2024/03/19 03:42:39;;;;;;;11.17;8.70;;;;;;;9.51;87.27;99044.63;5108175;28;43710;-73
2024/03/19 03:45:10;;;;;;;12.77;8.50;;;;;;;9.54;87.20;99041.78;5112196;28;42362;-75
2024/03/19 03:47:39;;;;;;;10.73;9.13;;;;;;;9.60;86.81;99040.59;5112240;28;41373;-75
2024/03/19 03:50:08;;;;;;;9.23;8.13;;;;;;;9.62;86.72;99041.38;5109097;28;41916;-73
2024/03/19 03:52:36;;;;;;;13.07;9.00;;;;;;;9.67;86.56;99048.09;5111864;28;43735;-74
2024/03/19 03:55:04;;;;;;;12.13;8.10;;;;;;;9.67;86.23;99045.44;5112526;28;42445;-74
2024/03/19 03:57:33;;;;;;;12.13;8.60;;;;;;;9.62;86.43;99036.94;5111772;28;39975;-75
2024/03/19 04:00:04;;;;;;;10.17;7.53;;;;;;;9.61;86.03;99039.66;5094365;28;41646;-74
2024/03/19 04:02:40;;;;;;;13.37;9.30;;;;;;;9.75;85.87;99054.75;5108075;28;43485;-73
2024/03/19 04:05:08;;;;;;;10.70;7.43;;;;;;;9.73;86.15;99061.00;5109424;28;42281;-75
2024/03/19 04:07:39;;;;;;;10.47;8.03;;;;;;;9.75;85.90;99065.34;5111596;28;39242;-74
2024/03/19 04:10:08;;;;;;;8.73;7.37;;;;;;;9.75;85.77;99068.00;5108752;28;41772;-75
2024/03/19 04:12:36;;;;;;;10.03;6.70;;;;;;;9.74;85.92;99069.78;5112525;28;43710;-74
2024/03/19 04:15:04;;;;;;;8.40;7.07;;;;;;;9.70;85.86;99068.22;5094353;28;41152;-74
2024/03/19 04:17:33;;;;;;;9.57;7.63;;;;;;;9.73;85.60;99071.56;5092531;28;40200;-74
2024/03/19 04:20:05;;;;;;;7.40;6.20;;;;;;;9.75;85.54;99070.63;5110241;28;41899;-75
2024/03/19 04:22:32;;;;;;;8.43;6.70;;;;;;;9.80;85.56;99079.16;5108231;28;43994;-75
2024/03/19 04:25:00;;;;;;;8.70;6.63;;;;;;;9.79;85.56;99080.09;5110991;28;42320;-74
2024/03/19 04:27:27;;;;;;;11.00;7.23;;;;;;;9.80;85.45;99080.00;5112563;28;39855;-74
2024/03/19 04:29:55;;;;;;;8.50;6.93;;;;;;;9.83;85.44;99085.13;5111916;28;41591;-75
2024/03/19 04:32:22;;;;;;;9.40;7.37;;;;;;;9.86;85.55;99086.75;5111127;27;42869;-74
2024/03/19 04:34:50;;;;;;;11.20;8.10;;;;;;;9.84;85.41;99083.34;5090701;28;40958;-74
2024/03/19 04:37:19;;;;;;;10.97;8.57;;;;;;;9.82;86.22;99070.19;5110730;28;41563;-73
2024/03/19 04:39:46;;;;;;;14.13;9.70;;;;;;;9.81;86.60;99072.91;5111440;28;42013;-73
2024/03/19 04:42:16;;;;;;;14.90;10.57;;;;;;;9.79;87.86;99074.78;5110900;28;41713;-74
2024/03/19 04:44:43;;;;;;;19.33;11.07;;;;;;;9.78;89.06;99073.94;5093921;28;42693;-75
2024/03/19 04:47:12;;;;;;;15.50;10.90;;;;;;;9.73;89.35;99066.28;5109321;28;40857;-75
2024/03/19 04:49:39;;;;;;;13.80;9.97;;;;;;;9.75;88.77;99065.34;5107635;28;40369;-75
2024/03/19 04:52:08;;;;;;;13.40;9.57;;;;;;;9.79;88.58;99073.00;5110793;28;44760;-73
2024/03/19 04:54:37;;;;;;;10.93;8.07;;;;;;;9.82;88.05;99074.63;5110500;28;43217;-74
2024/03/19 04:57:05;;;;;;;10.70;8.53;;;;;;;9.82;88.49;99074.63;5111402;28;39999;-75
2024/03/19 04:59:32;;;;;;;10.00;7.90;;;;;;;9.84;87.96;99067.47;5092603;28;43184;-74
2024/03/19 05:01:59;;;;;;;14.07;10.27;;;;;;;9.84;89.52;99073.59;5107945;28;42806;-73
2024/03/19 05:04:27;;;;;;;13.73;9.97;;;;;;;9.82;89.21;99075.47;5110957;28;42436;-73
2024/03/19 05:06:55;;;;;;;13.07;9.40;;;;;;;9.82;88.80;99071.97;5093749;28;40431;-75
2024/03/19 05:09:22;;;;;;;12.33;9.20;;;;;;;9.82;89.95;99069.34;5111856;28;42983;-73
2024/03/19 05:11:51;;;;;;;12.80;9.90;;;;;;;9.81;89.97;99062.34;5111907;28;42490;-74
2024/03/19 05:14:19;;;;;;;11.20;9.20;;;;;;;9.80;90.14;99061.47;5110628;28;42070;-73
2024/03/19 05:16:46;;;;;;;13.83;10.40;;;;;;;9.81;89.97;99062.34;5110696;28;41046;-73
2024/03/19 05:19:13;;;;;;;11.77;9.67;;;;;;;9.81;90.40;99054.41;5110154;28;41673;-74
2024/03/19 05:21:41;;;;;;;14.00;9.93;;;;;;;9.84;90.08;99067.47;5109448;28;43786;-73
2024/03/19 05:24:08;;;;;;;10.70;8.63;;;;;;;9.85;90.01;99066.53;5111188;28;43175;-73
2024/03/19 05:26:36;;;;;;;10.97;9.20;;;;;;;9.69;89.97;99040.06;5109956;28;41745;-73
2024/03/19 05:29:04;;;;;;;12.60;8.23;;;;;;;9.86;89.83;99074.38;5109729;28;42509;-73
2024/03/19 05:31:32;;;;;;;12.20;9.93;;;;;;;9.86;90.40;99071.72;5110393;28;43756;-75
2024/03/19 05:33:59;;;;;;;11.50;9.57;;;;;;;9.82;90.48;99066.69;5092925;28;40642;-74
2024/03/19 05:36:27;;;;;;;13.27;10.10;;;;;;;9.84;91.01;99067.47;5107272;28;40282;-73
2024/03/19 05:38:55;;;;;;;12.23;9.83;;;;;;;9.84;90.89;99072.75;5109635;28;42226;-74
2024/03/19 05:41:22;;;;;;;13.10;10.80;;;;;;;9.86;90.72;99070.88;5109142;28;43649;-73
2024/03/19 05:43:50;;;;;;;12.60;9.77;;;;;;;9.87;90.65;99072.59;5092781;28;41337;-73
2024/03/19 05:46:19;;;;;;;13.93;11.23;;;;;;;9.90;91.18;99075.88;5110861;28;41089;-73
2024/03/19 05:48:46;;;;;;;12.20;9.47;;;;;;;9.93;90.60;99073.09;5110607;28;42779;-73
2024/03/19 05:51:14;;;;;;;11.60;9.50;;;;;;;9.97;90.47;99074.63;5110688;27;42846;-74
2024/03/19 05:53:41;;;;;;;12.13;9.87;;;;;;;9.99;90.64;99071.91;5111336;28;42431;-74
2024/03/19 05:56:09;;;;;;;11.87;10.00;;;;;;;10.01;90.48;99091.19;5110780;28;39974;-73
2024/03/19 05:58:36;;;;;;;12.73;10.67;;;;;;;10.03;90.40;99084.00;5114338;28;42753;-74
2024/03/19 06:01:04;;;;;;;10.93;8.37;;;;;;;10.04;90.15;99097.13;5113075;28;43942;-74
2024/03/19 06:03:33;;;;;;;10.70;9.50;;;;;;;10.07;90.34;99085.53;5112880;28;42473;-74
2024/03/19 06:06:08;;;;;;;12.40;10.00;;;;;;;10.08;90.39;99084.59;5112155;28;40158;-73
2024/03/19 06:08:36;;;;;;;11.20;9.23;;;;;;;10.15;90.43;99083.28;5108611;28;42742;-73
2024/03/19 06:11:04;;;;;;;11.03;8.47;;;;;;;10.11;89.88;99080.94;5113969;28;42962;-74
2024/03/19 06:13:33;;;;;;;9.37;7.97;;;;;;;10.21;89.60;99093.56;5113614;28;43161;-75
2024/03/19 06:16:01;;;;;;;10.60;8.47;;;;;;;10.28;89.75;99100.22;5113792;28;41976;-74
2024/03/19 06:18:28;;;;;;;10.73;8.97;;;;;;;10.32;89.53;99099.09;5113934;28;41863;-75
2024/03/19 06:20:57;;;;;;;11.07;8.57;;;;;;;10.34;90.04;99102.53;5109188;28;41821;-74
2024/03/19 06:23:25;;;;;;;11.93;9.30;;;;;;;10.37;89.70;99112.94;5113704;28;43084;-73
2024/03/19 06:25:53;;;;;;;11.77;9.70;;;;;;;10.30;89.68;99098.34;5095298;28;39426;-75
2024/03/19 06:28:20;;;;;;;11.47;8.80;;;;;;;10.44;89.40;99110.78;5112687;28;40480;-73
2024/03/19 06:30:48;;;;;;;10.20;8.63;;;;;;;10.46;89.36;99110.69;5094416;28;42714;-74
2024/03/19 06:33:15;;;;;;;11.07;8.70;;;;;;;10.50;89.15;99114.88;5111233;28;42744;-74
2024/03/19 06:35:43;;;;;;;10.87;8.60;;;;;;;10.36;89.37;99097.16;5112516;28;40852;-73
2024/03/19 06:38:11;;;;;;;10.03;8.50;;;;;;;10.52;89.27;99119.13;5113461;28;42702;-74
2024/03/19 06:40:39;;;;;;;9.00;7.77;;;;;;;10.58;89.10;99120.56;5112166;28;42775;-75
2024/03/19 06:43:06;;;;;;;12.00;9.37;;;;;;;10.63;89.37;99122.00;5112562;28;41987;-73
2024/03/19 06:45:34;;;;;;;11.43;9.07;;;;;;;10.69;89.08;99123.44;5109562;28;39043;-74
2024/03/19 06:48:01;;;;;;;10.73;9.27;;;;;;;10.77;88.98;99124.69;5109749;28;41684;-73
2024/03/19 06:50:31;;;;;;;11.37;9.10;;;;;;;10.84;88.68;99127.00;5113301;28;42877;-74
2024/03/19 06:52:58;;;;;;;10.13;8.37;;;;;;;10.92;88.48;99127.38;5113473;28;42613;-75
2024/03/19 06:55:27;;;;;;;10.87;8.90;;;;;;;11.01;88.30;99130.31;5110875;28;39968;-73
2024/03/19 06:57:55;;;;;;;10.53;8.63;;;;;;;11.00;88.00;99119.84;5111989;28;40770;-75
2024/03/19 07:00:22;;;;;;;14.80;11.90;;;;;;;11.21;88.36;99138.91;5109610;28;43751;-74
2024/03/19 07:02:50;;;;;;;13.43;11.13;;;;;;;11.24;88.15;99144.88;5094059;28;42467;-73
2024/03/19 07:05:18;;;;;;;14.60;11.90;;;;;;;11.32;88.52;99147.03;5111562;28;41149;-74
2024/03/19 07:07:50;;;;;;;13.97;11.10;;;;;;;11.36;88.69;99154.72;5110098;28;41609;-74
2024/03/19 07:10:18;;;;;;;11.57;10.10;;;;;;;11.35;88.28;99152.19;5112785;28;42975;-73
2024/03/19 07:12:47;;;;;;;13.03;10.97;;;;;;;11.37;88.03;99152.94;5091178;28;43540;-73
2024/03/19 07:15:15;;;;;;;13.67;10.83;;;;;;;11.35;88.25;99154.81;5110447;28;40323;-74
2024/03/19 07:17:49;;;;;;;11.73;9.73;;;;;;;11.31;88.02;99150.66;5111801;28;40722;-73
2024/03/19 07:20:18;;;;;;;14.00;10.83;;;;;;;11.27;88.44;99149.97;5111165;28;41885;-73
2024/03/19 07:22:47;;;;;;;12.50;10.10;;;;;;;11.25;87.92;99151.03;5112963;28;42168;-73
2024/03/19 07:25:15;;;;;;;15.37;10.47;;;;;;;11.20;88.27;99146.00;5111308;28;39203;-75
2024/03/19 07:27:43;;;;;;;15.00;11.33;;;;;;;11.23;88.32;99155.56;5111333;28;42683;-74
2024/03/19 07:30:14;;;;;;;13.77;11.03;;;;;;;11.27;88.75;99160.56;5109054;28;42950;-74
2024/03/19 07:32:42;;;;;;;14.87;11.40;;;;;;;11.37;88.20;99155.59;5110381;28;42316;-74
2024/03/19 07:35:10;;;;;;;14.80;11.10;;;;;;;11.48;88.08;99163.75;5111262;28;40096;-74
2024/03/19 07:37:39;;;;;;;14.70;11.27;;;;;;;11.60;87.84;99162.97;5111584;28;42000;-75
2024/03/19 07:40:09;;;;;;;13.93;10.93;;;;;;;11.77;87.39;99176.06;5094212;28;42191;-74
2024/03/19 07:42:37;;;;;;;13.07;10.37;;;;;;;11.91;86.95;99155.78;5094211;28;42725;-75
2024/03/19 07:45:05;;;;;;;15.47;11.40;;;;;;;12.14;86.07;99173.75;5094352;28;39279;-75
2024/03/19 07:47:34;;;;;;;15.13;11.77;;;;;;;12.09;85.62;99163.44;5108723;28;42727;-74
2024/03/19 07:50:02;;;;;;;15.93;12.00;;;;;;;12.24;85.59;99182.81;5110271;28;43720;-74
2024/03/19 07:52:29;;;;;;;13.90;10.90;;;;;;;12.32;84.79;99172.59;5112289;28;42285;-75
2024/03/19 07:54:57;;;;;;;15.73;11.80;;;;;;;12.54;84.01;99188.84;5110783;28;41307;-75
2024/03/19 07:57:24;;;;;;;14.47;10.63;;;;;;;12.58;83.79;99166.44;5110877;28;41814;-75
2024/03/19 07:59:52;;;;;;;12.87;10.80;;;;;;;12.69;82.98;99180.81;5108445;28;43034;-76
2024/03/19 08:02:20;;;;;;;13.23;10.40;;;;;;;12.73;82.70;99193.81;5110316;28;42880;-75
2024/03/19 08:04:50;;;;;;;11.13;9.77;;;;;;;12.87;82.63;99199.03;5093389;28;38941;-73
2024/03/19 08:07:18;;;;;;;16.00;11.30;;;;;;;13.06;82.45;99195.16;5108445;28;41847;-74
2024/03/19 08:09:49;;;;;;;15.57;11.73;;;;;;;13.29;81.39;99203.31;5107962;28;43624;-74
2024/03/19 08:12:16;;;;;;;15.33;11.47;;;;;;;13.45;80.08;99208.47;5111151;28;40823;-74
2024/03/19 08:14:44;;;;;;;13.43;10.20;;;;;;;13.50;79.64;99206.31;5107972;28;41073;-76
2024/03/19 08:17:12;;;;;;;11.43;9.10;;;;;;;13.59;79.51;99210.16;5109802;28;41817;-75
2024/03/19 08:19:39;;;;;;;11.67;9.20;;;;;;;13.68;78.85;99214.84;5110343;28;41431;-75
2024/03/19 08:22:08;;;;;;;25.90;18.80;;;;;;;13.93;77.94;99214.84;5112051;28;42417;-76
2024/03/19 08:24:36;;;;;;;17.77;13.90;;;;;;;14.08;76.98;99218.22;5107805;28;39506;-73
2024/03/19 08:27:06;;;;;;;12.47;10.80;;;;;;;14.14;76.18;99225.78;5093222;28;40427;-73
2024/03/19 08:29:34;;;;;;;13.50;9.60;;;;;;;14.02;75.92;99219.50;5108504;28;42479;-74
2024/03/19 08:32:01;;;;;;;11.70;9.57;;;;;;;14.01;76.62;99231.13;5107239;28;42924;-77
2024/03/19 08:34:30;;;;;;;12.60;9.90;;;;;;;13.93;77.13;99217.50;5092851;28;20252;-74
2024/03/19 08:36:57;;;;;;;13.10;10.17;;;;;;;14.09;76.41;99240.38;5109293;28;41787;-76
2024/03/19 08:39:27;;;;;;;11.93;9.50;;;;;;;14.19;76.51;99236.09;5109807;28;42840;-75
2024/03/19 08:41:54;;;;;;;12.07;10.20;;;;;;;14.34;75.79;99240.34;5110014;28;42153;-75
2024/03/19 08:44:22;;;;;;;12.53;10.30;;;;;;;14.48;75.76;99234.88;5092088;28;40863;-74
2024/03/19 08:46:50;;;;;;;13.43;10.77;;;;;;;14.42;75.19;99192.69;5093274;28;41552;-74
2024/03/19 08:49:17;;;;;;;14.57;11.07;;;;;;;14.71;74.25;99214.56;5110814;28;42737;-76
2024/03/19 08:51:44;;;;;;;14.23;10.30;;;;;;;14.91;73.73;99239.75;5092753;28;43108;-75
2024/03/19 08:54:13;;;;;;;14.30;11.20;;;;;;;14.89;72.89;99242.53;5110555;28;39870;-75
2024/03/19 08:56:41;;;;;;;14.63;11.43;;;;;;;14.94;72.59;99250.19;5110993;28;41590;-75
2024/03/19 08:59:09;;;;;;;13.13;10.83;;;;;;;14.80;71.79;99234.38;5108947;28;42873;-74
2024/03/19 09:01:37;;;;;;;14.03;9.87;;;;;;;14.87;71.82;99249.78;5109376;28;42692;-74
2024/03/19 09:04:06;;;;;;;13.83;10.10;;;;;;;14.93;72.32;99232.50;5110351;28;40180;-74
2024/03/19 09:06:33;;;;;;;12.93;10.87;;;;;;;15.00;72.09;99239.06;5110375;28;42480;-75
2024/03/19 09:09:01;;;;;;;13.80;10.37;;;;;;;15.02;72.00;99227.31;5109557;28;42827;-75
2024/03/19 09:11:31;;;;;;;13.77;11.07;;;;;;;15.15;71.77;99237.06;5108815;28;41470;-75
2024/03/19 09:14:00;;;;;;;12.90;10.53;;;;;;;15.27;71.65;99226.31;5110180;28;39845;-75
2024/03/19 09:16:27;;;;;;;12.13;10.13;;;;;;;15.87;70.27;99245.78;5110261;28;41714;-76
2024/03/19 09:18:55;;;;;;;13.40;11.10;;;;;;;16.23;69.20;99252.72;5111258;28;42407;-76
2024/03/19 09:21:22;;;;;;;12.47;10.17;;;;;;;16.52;67.64;99243.22;5109131;28;43509;-76
2024/03/19 09:23:50;;;;;;;12.93;10.10;;;;;;;16.83;65.71;99263.00;5092752;28;38987;-76
2024/03/19 09:26:17;;;;;;;13.13;10.47;;;;;;;17.21;64.67;99262.50;5094917;28;42131;-76
2024/03/19 09:28:45;;;;;;;12.83;10.30;;;;;;;17.72;64.67;99267.16;5113336;28;43725;-75
2024/03/19 09:31:13;;;;;;;10.80;9.60;;;;;;;18.18;62.88;99272.94;5091531;28;44314;-75
2024/03/19 09:33:41;;;;;;;10.93;9.33;;;;;;;18.30;61.82;99276.38;5076236;28;41340;-76
2024/03/19 09:36:09;;;;;;;10.93;9.83;;;;;;;18.30;61.27;99274.53;5093129;28;41671;-75
2024/03/19 09:38:36;;;;;;;10.27;9.03;;;;;;;18.39;60.61;99277.41;5092557;28;41761;-76
2024/03/19 09:41:05;;;;;;;11.47;10.27;;;;;;;18.38;59.07;99286.44;5092049;28;43720;-76
2024/03/19 09:43:35;;;;;;;11.30;9.63;;;;;;;18.45;59.67;99283.06;5074357;28;38908;-77
2024/03/19 09:46:03;;;;;;;11.00;9.17;;;;;;;18.48;59.25;99284.66;5107838;28;42178;-76
2024/03/19 09:48:32;;;;;;;11.70;9.23;;;;;;;18.46;58.33;99281.25;5091237;28;42716;-76
2024/03/19 09:51:01;;;;;;;10.27;9.17;;;;;;;18.42;58.96;99277.97;5073993;28;42355;-76
2024/03/19 09:53:30;;;;;;;9.73;8.73;;;;;;;18.36;58.50;99266.97;5090661;28;38907;-76
2024/03/19 09:55:59;;;;;;;9.73;8.73;;;;;;;18.64;58.66;99282.34;5108673;28;41774;-75
2024/03/19 09:58:27;;;;;;;10.67;8.37;;;;;;;18.82;57.59;99269.94;5092396;28;42997;-76
2024/03/19 10:00:55;;;;;;;11.23;9.70;;;;;;;18.99;57.46;99274.66;5089959;28;42994;-76
2024/03/19 10:03:22;;;;;;;9.43;8.20;;;;;;;19.09;57.39;99274.66;5090659;28;39470;-76
2024/03/19 10:05:52;;;;;;;10.33;8.27;;;;;;;19.21;56.77;99275.38;5090757;28;42733;-78
2024/03/19 10:08:19;;;;;;;9.77;8.40;;;;;;;19.47;55.64;99276.53;5090593;28;42646;-77
2024/03/19 10:10:48;;;;;;;10.53;9.43;;;;;;;19.66;54.69;99283.75;5124656;27;43483;-77
2024/03/19 10:13:15;;;;;;;10.17;8.63;;;;;;;19.78;55.50;99262.97;5108012;28;41979;-77
2024/03/19 10:15:43;;;;;;;8.97;8.07;;;;;;;20.04;55.06;99274.75;5091986;28;41828;-77
2024/03/19 10:18:11;;;;;;;9.37;8.47;;;;;;;20.36;55.20;99286.03;5091729;28;44833;-77
2024/03/19 10:20:39;;;;;;;9.40;8.43;;;;;;;20.57;53.12;99293.88;5093007;28;42143;-77
2024/03/19 10:23:09;;;;;;;9.10;8.03;;;;;;;20.91;53.05;99283.34;5092262;28;40110;-76
2024/03/19 10:25:43;;;;;;;10.27;8.80;;;;;;;21.21;51.55;99292.13;5124866;27;42110;-77
2024/03/19 10:28:16;;;;;;;7.87;7.17;;;;;;;21.33;51.32;99280.97;5091953;28;44755;-77
2024/03/19 10:30:47;;;;;;;9.50;8.07;;;;;;;22.07;50.94;99295.94;5074762;28;42856;-77
2024/03/19 10:33:14;;;;;;;8.90;8.00;;;;;;;23.35;48.94;99303.97;5123517;27;40658;-77
2024/03/19 10:35:42;;;;;;;9.10;8.17;;;;;;;24.25;46.04;99313.81;5093140;28;41912;-77
2024/03/19 10:38:14;;;;;;;9.13;8.17;;;;;;;27.19;40.83;99347.72;5091165;28;43336;-78
2024/03/19 10:40:42;;;;;;;8.85;7.53;;;;;;;29.69;37.44;99356.16;5091835;28;42320;-78
2024/03/19 10:43:17;;;;;;;8.07;7.25;;;;;;;31.26;34.75;99368.13;5109133;28;40848;-77
2024/03/19 10:45:47;;;;;;;7.88;6.07;;;;;;;32.22;32.97;99368.88;5091702;28;43834;-77
2024/03/19 10:48:16;;;;;;;6.28;5.68;;;;;;;33.27;31.55;99372.47;5093136;28;42952;-78
2024/03/19 10:50:46;;;;;;;7.20;6.60;;;;;;;34.43;29.40;99391.38;5091540;28;40842;-78
2024/03/19 10:53:20;;;;;;;6.28;5.65;;;;;;;35.39;28.31;99383.69;5092410;28;40242;-78
2024/03/19 10:55:51;;;;;;;6.07;5.57;;;;;;;35.82;27.48;99384.03;5107246;28;41314;-78
2024/03/19 10:58:22;;;;;;;5.53;5.03;;;;;;;35.47;27.19;99372.28;5091743;28;43401;-78
2024/03/19 11:00:50;;;;;;;5.65;5.15;;;;;;;35.69;27.12;99354.00;5090548;28;41578;-78
2024/03/19 11:03:20;;;;;;;5.53;5.03;;;;;;;36.13;26.54;99370.78;5091985;28;39964;-78
2024/03/19 11:05:49;;;;;;;5.68;5.20;;;;;;;36.49;26.29;99359.28;5107210;28;42005;-78
2024/03/19 11:08:18;;;;;;;5.20;4.80;;;;;;;36.85;25.48;99365.38;5091865;28;42814;-77
2024/03/19 11:10:46;;;;;;;5.90;5.07;;;;;;;36.72;25.42;99354.72;5107898;28;42605;-78
2024/03/19 11:13:15;;;;;;;6.47;5.68;;;;;;;36.74;24.07;99358.88;5092829;28;41957;-78
2024/03/19 11:15:44;;;;;;;5.18;4.72;;;;;;;36.48;24.96;99356.78;5107933;28;41624;-77
2024/03/19 11:18:19;;;;;;;5.45;4.95;;;;;;;36.11;24.81;99353.66;5108251;28;42980;-78
2024/03/19 11:20:51;;;;;;;5.63;5.10;;;;;;;35.88;25.06;99347.19;5074300;28;43181;-77
2024/03/19 11:23:23;;;;;;;5.43;4.90;;;;;;;35.71;25.00;99351.81;5088438;28;40003;-78
2024/03/19 11:25:51;;;;;;;5.10;4.45;;;;;;;35.60;24.44;99348.03;5074011;28;43216;-78
2024/03/19 11:28:20;;;;;;;4.93;4.30;;;;;;;35.80;25.07;99328.31;5091016;28;44644;-78
2024/03/19 11:30:48;;;;;;;5.55;4.95;;;;;;;36.16;24.84;99338.03;5073230;28;42373;-77
2024/03/19 11:33:16;;;;;;;5.47;4.95;;;;;;;36.25;24.69;99347.59;5091309;28;39202;-78
2024/03/19 11:35:46;;;;;;;5.07;4.40;;;;;;;36.27;24.26;99352.88;5107697;28;40691;-77